createdAt,value
2023-12-11T00:02:18.070Z,99407.17
2023-12-11T00:04:51.305Z,99406.31
2023-12-11T00:07:22.929Z,99407.23
2023-12-11T00:09:53.719Z,99405.71
2023-12-11T00:12:26.646Z,99402.02
2023-12-11T00:14:59.994Z,99400.55
2023-12-11T00:17:33.196Z,99396.82
2023-12-11T00:20:04.619Z,99398.88
2023-12-11T00:22:35.233Z,99403.45
2023-12-11T00:25:11.852Z,99405.42
2023-12-11T00:27:42.787Z,99409.69
2023-12-11T00:30:16.311Z,99415.24
2023-12-11T00:32:47.307Z,99419.23
2023-12-11T00:35:18.079Z,99419.88
2023-12-11T00:37:48.585Z,99420.48
2023-12-11T00:40:19.382Z,99428.40
2023-12-11T00:42:50.151Z,99431.35
2023-12-11T00:45:34.593Z,99435.17
2023-12-11T00:48:05.737Z,99429.33
2023-12-11T00:50:35.912Z,99431.23
2023-12-11T00:53:06.391Z,99426.39
2023-12-11T00:55:36.958Z,99422.73
2023-12-11T00:58:07.757Z,99421.39
2023-12-11T01:00:38.561Z,99416.11
2023-12-11T01:03:10.027Z,99416.91
2023-12-11T01:05:43.940Z,99412.55
2023-12-11T01:08:14.566Z,99407.13
2023-12-11T01:10:45.332Z,99401.92
2023-12-11T01:13:36.118Z,99399.00
2023-12-11T01:16:14.400Z,99397.67
2023-12-11T01:18:45.618Z,99397.97
2023-12-11T01:21:16.644Z,99397.00
2023-12-11T01:23:47.362Z,99397.66
2023-12-11T01:26:17.963Z,99391.17
2023-12-11T01:28:48.588Z,99385.00
2023-12-11T01:31:19.308Z,99382.84
2023-12-11T01:33:50.068Z,99387.06
2023-12-11T01:36:20.737Z,99385.41
2023-12-11T01:38:51.468Z,99386.63
2023-12-11T01:41:22.099Z,99389.41
2023-12-11T01:43:58.529Z,99388.64
2023-12-11T01:46:29.418Z,99390.32
2023-12-11T01:49:10.641Z,99390.16
2023-12-11T01:51:44.362Z,99389.48
2023-12-11T01:54:15.638Z,99388.67
2023-12-11T01:56:50.186Z,99390.34
2023-12-11T01:59:21.106Z,99383.77
2023-12-11T02:01:53.162Z,99381.23
2023-12-11T02:04:24.289Z,99386.43
2023-12-11T02:07:08.246Z,99391.31
2023-12-11T02:09:42.001Z,99397.70
2023-12-11T02:12:26.271Z,99399.17
2023-12-11T02:14:56.937Z,99402.20
2023-12-11T02:17:38.840Z,99397.09
2023-12-11T02:20:13.961Z,99400.04
2023-12-11T02:22:44.861Z,99395.04
2023-12-11T02:25:15.610Z,99398.75
2023-12-11T02:27:49.404Z,99392.20
2023-12-11T02:30:23.253Z,99391.00
2023-12-11T02:32:55.933Z,99391.23
2023-12-11T02:35:28.911Z,99393.54
2023-12-11T02:37:59.836Z,99400.38
2023-12-11T02:40:33.476Z,99403.99
2023-12-11T02:43:04.294Z,99401.18
2023-12-11T02:45:46.928Z,99399.81
2023-12-11T02:48:16.620Z,99406.17
2023-12-11T02:50:49.404Z,99405.03
2023-12-11T02:53:40.348Z,99408.19
2023-12-11T02:56:12.229Z,99411.69
2023-12-11T02:58:44.512Z,99409.81
2023-12-11T03:01:16.718Z,99404.02
2023-12-11T03:03:50.128Z,99395.38
2023-12-11T03:06:23.841Z,99396.61
2023-12-11T03:08:54.679Z,99392.45
2023-12-11T03:11:25.429Z,99399.43
2023-12-11T03:14:06.304Z,99398.06
2023-12-11T03:16:37.189Z,99401.40
2023-12-11T03:19:07.940Z,99387.52
2023-12-11T03:21:41.289Z,99387.61
2023-12-11T03:24:12.116Z,99390.39
2023-12-11T03:26:42.732Z,99390.87
2023-12-11T03:29:13.388Z,99387.96
2023-12-11T03:31:44.102Z,99382.73
2023-12-11T03:34:15.012Z,99384.79
2023-12-11T03:36:48.078Z,99384.27
2023-12-11T03:39:18.760Z,99383.02
2023-12-11T03:41:50.470Z,99371.58
2023-12-11T03:44:30.182Z,99374.51
2023-12-11T03:47:00.763Z,99367.23
2023-12-11T03:49:33.814Z,99363.58
2023-12-11T03:52:04.667Z,99364.65
2023-12-11T03:54:35.352Z,99354.57
2023-12-11T03:57:08.963Z,99361.48
2023-12-11T03:59:44.401Z,99360.88
2023-12-11T04:02:15.423Z,99363.33
2023-12-11T04:04:56.471Z,99361.90
2023-12-11T04:07:30.004Z,99357.98
2023-12-11T04:10:10.600Z,99359.25
2023-12-11T04:12:45.924Z,99365.36
2023-12-11T04:15:16.523Z,99360.67
2023-12-11T04:18:07.550Z,99360.46
2023-12-11T04:20:38.423Z,99363.89
2023-12-11T04:23:11.574Z,99364.36
2023-12-11T04:25:42.160Z,99371.66
2023-12-11T04:28:12.913Z,99374.54
2023-12-11T04:30:53.825Z,99376.34
2023-12-11T04:33:24.885Z,99374.52
2023-12-11T04:35:55.778Z,99373.96
2023-12-11T04:38:46.876Z,99366.33
2023-12-11T04:41:17.626Z,99360.04
2023-12-11T04:43:48.335Z,99365.44
2023-12-11T04:46:26.396Z,99364.75
2023-12-11T04:48:57.182Z,99363.92
2023-12-11T04:51:30.733Z,99359.81
2023-12-11T04:54:11.529Z,99357.34
2023-12-11T04:56:42.461Z,99357.48
2023-12-11T04:59:13.136Z,99351.81
2023-12-11T05:01:43.788Z,99348.04
2023-12-11T05:04:14.617Z,99341.67
2023-12-11T05:07:07.459Z,99334.98
2023-12-11T05:09:38.179Z,99331.16
2023-12-11T05:12:10.082Z,99331.69
2023-12-11T05:14:40.883Z,99334.41
2023-12-11T05:17:11.562Z,99329.66
2023-12-11T05:19:42.406Z,99327.85
2023-12-11T05:22:13.095Z,99326.87
2023-12-11T05:24:43.885Z,99322.50
2023-12-11T05:27:17.889Z,99316.14
2023-12-11T05:29:48.549Z,99312.81
2023-12-11T05:32:19.089Z,99306.65
2023-12-11T05:34:49.826Z,99301.13
2023-12-11T05:37:20.586Z,99296.93
2023-12-11T05:39:58.004Z,99289.45
2023-12-11T05:42:42.037Z,99285.02
2023-12-11T05:45:32.953Z,99290.25
2023-12-11T05:48:03.817Z,99297.95
2023-12-11T05:50:35.056Z,99298.45
2023-12-11T05:53:06.327Z,99306.81
2023-12-11T05:55:37.754Z,99304.80
2023-12-11T05:58:08.467Z,99304.39
2023-12-11T06:00:49.338Z,99302.65
2023-12-11T06:03:22.660Z,99303.16
2023-12-11T06:05:59.059Z,99301.79
2023-12-11T06:08:29.988Z,99302.71
2023-12-11T06:11:11.801Z,99314.94
2023-12-11T06:13:42.527Z,99318.27
2023-12-11T06:16:23.291Z,99321.12
2023-12-11T06:18:54.300Z,99321.77
2023-12-11T06:21:26.630Z,99323.97
2023-12-11T06:24:00.588Z,99320.66
2023-12-11T06:26:32.980Z,99316.83
2023-12-11T06:29:06.679Z,99310.88
2023-12-11T06:31:48.564Z,99310.39
2023-12-11T06:34:19.337Z,99306.67
2023-12-11T06:36:50.377Z,99301.89
2023-12-11T06:39:24.246Z,99303.23
2023-12-11T06:41:55.340Z,99294.55
2023-12-11T06:44:27.165Z,99290.65
2023-12-11T06:47:09.447Z,99292.73
2023-12-11T06:49:40.354Z,99299.10
2023-12-11T06:52:11.860Z,99296.65
2023-12-11T06:54:42.594Z,99291.15
2023-12-11T06:57:13.313Z,99288.58
2023-12-11T06:59:47.308Z,99282.80
2023-12-11T07:02:21.185Z,99280.59
2023-12-11T07:04:52.015Z,99285.23
2023-12-11T07:07:26.396Z,99279.41
2023-12-11T07:09:59.397Z,99276.88
2023-12-11T07:12:31.533Z,99267.91
2023-12-11T07:15:02.261Z,99257.48
2023-12-11T07:17:36.220Z,99253.98
2023-12-11T07:20:09.278Z,99255.09
2023-12-11T07:22:39.917Z,99261.63
2023-12-11T07:25:18.639Z,99271.90
2023-12-11T07:27:49.569Z,99278.36
2023-12-11T07:30:19.265Z,99284.81
2023-12-11T07:32:50.181Z,99287.88
2023-12-11T07:35:23.369Z,99297.64
2023-12-11T07:37:54.067Z,99298.39
2023-12-11T07:40:24.791Z,99306.70
2023-12-11T07:42:55.396Z,99309.48
2023-12-11T07:45:37.483Z,99310.55
2023-12-11T07:48:08.661Z,99307.05
2023-12-11T07:50:40.503Z,99305.59
2023-12-11T07:53:11.166Z,99301.84
2023-12-11T07:55:41.931Z,99300.65
2023-12-11T07:58:14.892Z,99299.62
2023-12-11T08:00:48.454Z,99297.46
2023-12-11T08:03:19.160Z,99304.33
2023-12-11T08:05:49.811Z,99304.39
2023-12-11T08:08:21.233Z,99312.46
2023-12-11T08:10:51.949Z,99312.70
2023-12-11T08:13:22.825Z,99316.45
2023-12-11T08:15:53.365Z,99310.48
2023-12-11T08:18:24.258Z,99320.48
2023-12-11T08:20:54.963Z,99316.90
2023-12-11T08:23:25.528Z,99316.15
2023-12-11T08:25:56.260Z,99315.15
2023-12-11T08:28:29.378Z,99309.84
2023-12-11T08:31:00.130Z,99317.04
2023-12-11T08:33:30.720Z,99321.11
2023-12-11T08:36:01.486Z,99332.77
2023-12-11T08:38:32.269Z,99329.30
2023-12-11T08:41:02.866Z,99335.23
2023-12-11T08:43:33.615Z,99328.22
2023-12-11T08:46:04.504Z,99333.80
2023-12-11T08:48:35.665Z,99343.63
2023-12-11T08:51:05.189Z,99342.33
2023-12-11T08:53:35.809Z,99349.80
2023-12-11T08:56:07.106Z,99343.14
2023-12-11T08:58:38.292Z,99343.48
2023-12-11T09:01:07.987Z,99340.53
2023-12-11T09:03:38.994Z,99341.38
2023-12-11T09:06:10.858Z,99339.48
2023-12-11T09:08:41.763Z,99341.09
2023-12-11T09:11:12.382Z,99338.81
2023-12-11T09:13:42.914Z,99347.73
2023-12-11T09:16:13.761Z,99352.94
2023-12-11T09:18:44.473Z,99352.23
2023-12-11T09:21:15.194Z,99350.09
2023-12-11T09:23:46.641Z,99354.17
2023-12-11T09:26:17.239Z,99354.54
2023-12-11T09:28:51.797Z,99353.90
2023-12-11T09:31:25.398Z,99351.88
2023-12-11T09:34:03.999Z,99358.66
2023-12-11T09:36:34.895Z,99361.77
2023-12-11T09:39:05.760Z,99359.77
2023-12-11T09:41:37.199Z,99368.81
2023-12-11T09:44:08.671Z,99375.96
2023-12-11T09:46:43.294Z,99379.02
2023-12-11T09:49:14.160Z,99388.73
2023-12-11T09:51:45.026Z,99397.29
2023-12-11T09:54:16.256Z,99393.51
2023-12-11T09:56:45.817Z,99389.74
2023-12-11T09:59:17.160Z,99392.07
2023-12-11T10:01:48.981Z,99398.19
2023-12-11T10:04:19.939Z,99392.81
2023-12-11T10:06:54.620Z,99376.64
2023-12-11T10:09:34.360Z,99391.48
2023-12-11T10:12:07.252Z,99381.48
2023-12-11T10:14:38.342Z,99378.34
2023-12-11T10:17:22.183Z,99376.61
2023-12-11T10:19:53.219Z,99380.02
2023-12-11T10:22:31.511Z,99383.70
2023-12-11T10:25:02.496Z,99380.85
2023-12-11T10:27:33.068Z,99374.69
2023-12-11T10:30:15.729Z,99374.98
2023-12-11T10:32:46.412Z,99365.21
2023-12-11T10:35:27.365Z,99364.23
2023-12-11T10:38:04.162Z,99355.48
2023-12-11T10:40:42.914Z,99357.81
2023-12-11T10:43:13.660Z,99363.72
2023-12-11T10:45:45.163Z,99358.08
2023-12-11T10:48:17.018Z,99349.75
2023-12-11T10:50:47.873Z,99354.69
2023-12-11T10:53:19.881Z,99351.84
2023-12-11T10:55:54.346Z,99355.05
2023-12-11T10:58:26.991Z,99356.05
2023-12-11T11:01:00.970Z,99351.70
2023-12-11T11:03:33.168Z,99353.10
2023-12-11T11:06:03.874Z,99360.42
2023-12-11T11:08:39.476Z,99360.90
2023-12-11T11:11:17.070Z,99367.20
2023-12-11T11:14:13.325Z,99365.69
2023-12-11T11:17:00.883Z,99366.72
2023-12-11T11:19:31.650Z,99371.05
2023-12-11T11:22:31.381Z,99367.23
2023-12-11T11:25:38.166Z,99369.88
2023-12-11T11:28:32.177Z,99369.64
2023-12-11T11:31:03.164Z,99371.08
2023-12-11T11:33:48.926Z,99372.27
2023-12-11T11:36:22.177Z,99378.38
2023-12-11T11:38:59.208Z,99372.24
2023-12-11T11:41:31.259Z,99372.94
2023-12-11T11:44:06.695Z,99369.33
2023-12-11T11:46:57.120Z,99370.63
2023-12-11T11:49:39.199Z,99366.98
2023-12-11T11:52:12.199Z,99360.32
2023-12-11T11:54:43.690Z,99365.02
2023-12-11T11:57:14.996Z,99369.34
2023-12-11T11:59:48.659Z,99376.70
2023-12-11T12:02:25.960Z,99371.44
2023-12-11T12:04:56.810Z,99365.04
2023-12-11T12:07:28.359Z,99360.88
2023-12-11T12:10:02.589Z,99360.53
2023-12-11T12:12:33.307Z,99366.27
2023-12-11T12:15:05.656Z,99367.47
2023-12-11T12:17:47.600Z,99366.90
2023-12-11T12:20:19.357Z,99372.59
2023-12-11T12:23:02.609Z,99376.46
2023-12-11T12:25:34.793Z,99381.31
2023-12-11T12:28:08.416Z,99380.23
2023-12-11T12:30:40.103Z,99386.79
2023-12-11T12:33:13.685Z,99389.20
2023-12-11T12:35:46.334Z,99396.04
2023-12-11T12:38:17.938Z,99389.48
2023-12-11T12:40:49.824Z,99393.96
2023-12-11T12:43:20.741Z,99398.83
2023-12-11T12:45:51.457Z,99393.16
2023-12-11T12:48:31.707Z,99391.27
2023-12-11T12:51:10.319Z,99386.96
2023-12-11T12:53:49.791Z,99387.34
2023-12-11T12:56:21.574Z,99391.45
2023-12-11T12:58:55.153Z,99395.56
2023-12-11T13:01:25.754Z,99395.98
2023-12-11T13:04:02.637Z,99395.96
2023-12-11T13:06:33.123Z,99395.05
2023-12-11T13:09:04.134Z,99397.90
2023-12-11T13:11:46.643Z,99398.66
2023-12-11T13:14:20.009Z,99402.00
2023-12-11T13:16:51.020Z,99399.91
2023-12-11T13:19:22.042Z,99400.21
2023-12-11T13:21:52.779Z,99397.42
2023-12-11T13:24:23.706Z,99398.48
2023-12-11T13:26:54.385Z,99404.51
2023-12-11T13:29:24.750Z,99407.05
2023-12-11T13:31:57.708Z,99408.30
2023-12-11T13:34:28.736Z,99412.38
2023-12-11T13:36:59.943Z,99418.11
2023-12-11T13:39:30.770Z,99422.91
2023-12-11T13:42:01.250Z,99440.39
2023-12-11T13:44:35.402Z,99442.04
2023-12-11T13:47:06.424Z,99451.02
2023-12-11T13:49:35.745Z,99450.47
2023-12-11T13:52:06.873Z,99450.99
2023-12-11T13:54:39.817Z,99463.75
2023-12-11T13:57:10.299Z,99462.13
2023-12-11T13:59:41.389Z,99467.47
2023-12-11T14:02:12.216Z,99468.67
2023-12-11T14:04:43.348Z,99474.46
2023-12-11T14:07:14.056Z,99472.30
2023-12-11T14:09:44.811Z,99474.05
2023-12-11T14:12:17.069Z,99466.90
2023-12-11T14:14:47.829Z,99469.97
2023-12-11T14:17:18.341Z,99472.81
2023-12-11T14:19:52.053Z,99468.45
2023-12-11T14:22:22.758Z,99470.75
2023-12-11T14:24:53.858Z,99471.65
2023-12-11T14:27:25.136Z,99467.76
2023-12-11T14:29:56.034Z,99473.82
2023-12-11T14:32:26.499Z,99482.27
2023-12-11T14:34:57.003Z,99482.02
2023-12-11T14:37:27.849Z,99477.78
2023-12-11T14:39:58.478Z,99484.67
2023-12-11T14:42:29.469Z,99492.59
2023-12-11T14:44:59.902Z,99497.08
2023-12-11T14:47:30.818Z,99507.48
2023-12-11T14:50:11.903Z,99510.58
2023-12-11T14:52:43.062Z,99522.52
2023-12-11T14:55:24.298Z,99525.14
2023-12-11T14:57:55.983Z,99527.88
2023-12-11T15:00:26.483Z,99531.36
2023-12-11T15:02:56.990Z,99534.32
2023-12-11T15:05:27.577Z,99535.02
2023-12-11T15:07:58.053Z,99545.23
2023-12-11T15:10:28.609Z,99551.16
2023-12-11T15:12:59.084Z,99560.96
2023-12-11T15:15:29.988Z,99562.77
2023-12-11T15:18:03.671Z,99566.69
2023-12-11T15:20:34.197Z,99573.69
2023-12-11T15:23:06.617Z,99571.98
2023-12-11T15:25:37.240Z,99579.86
2023-12-11T15:28:07.722Z,99585.84
2023-12-11T15:30:38.159Z,99594.83
2023-12-11T15:33:09.687Z,99597.23
2023-12-11T15:35:41.418Z,99599.03
2023-12-11T15:38:11.879Z,99604.64
2023-12-11T15:40:42.281Z,99600.25
2023-12-11T15:43:12.780Z,99606.78
2023-12-11T15:45:44.056Z,99604.52
2023-12-11T15:48:36.681Z,99609.73
2023-12-11T15:51:18.682Z,99607.34
2023-12-11T15:53:49.471Z,99609.52
2023-12-11T15:56:20.074Z,99605.30
2023-12-11T15:58:50.912Z,99609.30
2023-12-11T16:01:21.551Z,99608.31
2023-12-11T16:03:52.699Z,99613.23
2023-12-11T16:06:23.556Z,99610.64
2023-12-11T16:08:54.543Z,99612.96
2023-12-11T16:11:31.742Z,99610.30
2023-12-11T16:14:02.717Z,99613.61
2023-12-11T16:16:35.654Z,99615.37
2023-12-11T16:19:06.280Z,99610.38
2023-12-11T16:21:41.110Z,99610.23
2023-12-11T16:24:11.738Z,99613.80
2023-12-11T16:26:42.508Z,99614.84
2023-12-11T16:29:13.255Z,99616.98
2023-12-11T16:31:44.372Z,99616.73
2023-12-11T16:34:13.730Z,99627.20
2023-12-11T16:36:44.586Z,99634.13
2023-12-11T16:39:20.868Z,99642.70
2023-12-11T16:41:51.797Z,99642.67
2023-12-11T16:44:29.697Z,99648.34
2023-12-11T16:47:00.710Z,99648.28
2023-12-11T16:49:32.624Z,99650.04
2023-12-11T16:52:04.920Z,99652.17
2023-12-11T16:54:35.346Z,99657.38
2023-12-11T16:57:06.360Z,99652.54
2023-12-11T16:59:36.995Z,99654.48
2023-12-11T17:02:08.118Z,99654.40
2023-12-11T17:04:38.862Z,99658.95
2023-12-11T17:07:09.633Z,99660.09
2023-12-11T17:09:43.287Z,99660.88
2023-12-11T17:12:14.281Z,99663.18
2023-12-11T17:14:45.749Z,99670.76
2023-12-11T17:17:16.093Z,99670.23
2023-12-11T17:19:46.576Z,99677.14
2023-12-11T17:22:17.311Z,99679.72
2023-12-11T17:24:47.880Z,99682.70
2023-12-11T17:27:18.331Z,99681.16
2023-12-11T17:29:48.936Z,99687.48
2023-12-11T17:32:19.392Z,99690.29
2023-12-11T17:34:50.837Z,99696.10
2023-12-11T17:37:23.419Z,99701.38
2023-12-11T17:39:56.680Z,99703.52
2023-12-11T17:42:28.180Z,99702.65
2023-12-11T17:44:57.300Z,99702.61
2023-12-11T17:47:27.908Z,99703.29
2023-12-11T17:49:59.070Z,99707.52
2023-12-11T17:52:29.888Z,99706.45
2023-12-11T17:55:12.260Z,99706.04
2023-12-11T17:57:42.814Z,99704.80
2023-12-11T18:00:15.682Z,99708.40
2023-12-11T18:02:46.078Z,99711.73
2023-12-11T18:05:36.914Z,99715.65
2023-12-11T18:08:07.893Z,99717.26
2023-12-11T18:10:38.710Z,99723.46
2023-12-11T18:13:09.105Z,99729.85
2023-12-11T18:15:39.742Z,99730.91
2023-12-11T18:18:10.480Z,99733.42
2023-12-11T18:20:41.118Z,99735.41
2023-12-11T18:23:13.715Z,99742.96
2023-12-11T18:25:52.653Z,99752.88
2023-12-11T18:28:23.329Z,99751.19
2023-12-11T18:30:53.945Z,99756.58
2023-12-11T18:33:24.929Z,99761.48
2023-12-11T18:35:55.568Z,99769.78
2023-12-11T18:38:26.279Z,99770.50
2023-12-11T18:40:59.740Z,99772.51
2023-12-11T18:43:30.922Z,99776.81
2023-12-11T18:45:59.950Z,99782.96
2023-12-11T18:48:30.430Z,99777.34
2023-12-11T18:51:00.970Z,99782.61
2023-12-11T18:53:31.434Z,99785.58
2023-12-11T18:56:02.374Z,99785.75
2023-12-11T18:58:32.952Z,99793.81
2023-12-11T19:01:25.561Z,99798.93
2023-12-11T19:03:56.430Z,99799.92
2023-12-11T19:06:37.263Z,99805.10
2023-12-11T19:09:08.672Z,99811.48
2023-12-11T19:11:39.392Z,99812.41
2023-12-11T19:14:09.881Z,99813.87
2023-12-11T19:16:40.378Z,99823.00
2023-12-11T19:19:11.035Z,99826.46
2023-12-11T19:21:41.713Z,99834.34
2023-12-11T19:24:13.326Z,99837.12
2023-12-11T19:26:43.902Z,99831.52
2023-12-11T19:29:15.724Z,99839.83
2023-12-11T19:31:46.344Z,99842.38
2023-12-11T19:34:18.170Z,99850.54
2023-12-11T19:36:48.933Z,99850.97
2023-12-11T19:39:19.633Z,99854.38
2023-12-11T19:41:50.172Z,99856.23
2023-12-11T19:44:20.684Z,99862.45
2023-12-11T19:46:52.497Z,99863.75
2023-12-11T19:49:24.100Z,99862.87
2023-12-11T19:52:05.652Z,99866.19
2023-12-11T19:54:34.801Z,99864.51
2023-12-11T19:57:05.290Z,99864.38
2023-12-11T19:59:38.767Z,99865.70
2023-12-11T20:02:09.848Z,99866.38
2023-12-11T20:04:40.793Z,99863.16
2023-12-11T20:07:32.469Z,99863.56
2023-12-11T20:10:03.478Z,99866.98
2023-12-11T20:12:37.026Z,99872.50
2023-12-11T20:15:12.661Z,99877.67
2023-12-11T20:17:43.209Z,99879.02
2023-12-11T20:20:14.499Z,99879.66
2023-12-11T20:22:45.326Z,99875.91
2023-12-11T20:25:16.488Z,99871.15
2023-12-11T20:27:47.071Z,99873.78
2023-12-11T20:30:18.352Z,99873.80
2023-12-11T20:32:47.382Z,99866.88
2023-12-11T20:35:17.880Z,99871.39
2023-12-11T20:37:48.371Z,99867.25
2023-12-11T20:40:18.971Z,99858.64
2023-12-11T20:42:49.418Z,99855.39
2023-12-11T20:45:23.991Z,99853.20
2023-12-11T20:47:54.441Z,99850.02
2023-12-11T20:50:24.794Z,99854.61
2023-12-11T20:52:55.313Z,99854.68
2023-12-11T20:55:25.840Z,99860.69
2023-12-11T20:57:56.241Z,99861.28
2023-12-11T21:00:26.748Z,99867.88
2023-12-11T21:02:58.758Z,99862.00
2023-12-11T21:05:30.656Z,99863.89
2023-12-11T21:08:01.357Z,99862.23
2023-12-11T21:10:31.848Z,99866.24
2023-12-11T21:13:02.300Z,99868.78
2023-12-11T21:15:39.709Z,99870.94
2023-12-11T21:18:20.882Z,99872.02
2023-12-11T21:20:51.511Z,99871.66
2023-12-11T21:23:21.984Z,99872.72
2023-12-11T21:25:54.238Z,99879.98
2023-12-11T21:28:29.508Z,99887.77
2023-12-11T21:31:19.776Z,99886.89
2023-12-11T21:34:10.544Z,99887.29
2023-12-11T21:36:41.615Z,99887.52
2023-12-11T21:39:12.097Z,99896.67
2023-12-11T21:41:50.366Z,99894.44
2023-12-11T21:44:23.474Z,99899.17
2023-12-11T21:46:55.713Z,99899.02
2023-12-11T21:49:26.262Z,99899.90
2023-12-11T21:51:59.045Z,99899.88
2023-12-11T21:54:29.700Z,99902.83
2023-12-11T21:57:00.767Z,99905.42
2023-12-11T21:59:39.261Z,99909.10
2023-12-11T22:02:13.842Z,99907.46
2023-12-11T22:04:44.257Z,99910.58
2023-12-11T22:07:17.417Z,99907.83
2023-12-11T22:09:49.001Z,99910.01
2023-12-11T22:12:19.482Z,99909.42
2023-12-11T22:14:49.905Z,99907.27
2023-12-11T22:17:21.505Z,99905.70
2023-12-11T22:19:54.422Z,99905.48
2023-12-11T22:22:27.547Z,99900.17
2023-12-11T22:25:00.296Z,99902.78
2023-12-11T22:27:33.146Z,99901.49
2023-12-11T22:30:10.315Z,99899.16
2023-12-11T22:32:45.081Z,99901.23
2023-12-11T22:35:16.629Z,99901.23
2023-12-11T22:37:47.236Z,99906.01
2023-12-11T22:40:18.245Z,99907.23
2023-12-11T22:42:51.234Z,99908.02
2023-12-11T22:45:24.105Z,99903.94
2023-12-11T22:47:54.586Z,99905.13
2023-12-11T22:50:26.563Z,99910.20
2023-12-11T22:52:58.308Z,99913.86
2023-12-11T22:55:28.823Z,99915.41
2023-12-11T22:58:09.222Z,99910.98
2023-12-11T23:00:44.726Z,99909.75
2023-12-11T23:03:19.511Z,99911.48
2023-12-11T23:05:50.690Z,99912.52
2023-12-11T23:08:24.008Z,99914.41
2023-12-11T23:10:54.439Z,99923.65
2023-12-11T23:13:24.830Z,99927.78
2023-12-11T23:15:55.221Z,99930.36
2023-12-11T23:18:25.654Z,99929.91
2023-12-11T23:20:56.256Z,99932.59
2023-12-11T23:23:26.651Z,99934.43
2023-12-11T23:26:04.341Z,99938.42
2023-12-11T23:28:36.471Z,99947.09
2023-12-11T23:31:07.581Z,99946.63
2023-12-11T23:33:39.542Z,99952.54
2023-12-11T23:36:12.108Z,99948.55
2023-12-11T23:38:42.937Z,99942.27
2023-12-11T23:41:15.205Z,99947.40
2023-12-11T23:43:48.920Z,99950.23
2023-12-11T23:46:19.638Z,99947.45
2023-12-11T23:48:53.263Z,99941.17
2023-12-11T23:51:26.718Z,99941.05
2023-12-11T23:54:07.799Z,99947.48
2023-12-11T23:56:38.312Z,99956.38
2023-12-11T23:59:11.238Z,99962.66
